sensor_id;sensor_type;location;lat;lon;timestamp;pressure;altitude;pressure_sealevel;temperature;humidity
23318;BME280;11831;55.918;37.746;2023-01-28T00:00:55;100020.28;;;0.30;0.00
23318;BME280;11831;55.918;37.746;2023-01-28T00:03:21;100010.28;;;0.61;0.00
23318;BME280;11831;55.918;37.746;2023-01-28T00:05:48;100012.22;;;0.77;0.00
23318;BME280;11831;55.918;37.746;2023-01-28T00:08:14;100014.19;;;0.75;0.00
23318;BME280;11831;55.918;37.746;2023-01-28T00:10:41;99999.72;;;0.97;0.00
23318;BME280;11831;55.918;37.746;2023-01-28T00:13:12;100010.34;;;1.31;0.00
23318;BME280;11831;55.918;37.746;2023-01-28T00:15:41;100004.31;;;0.77;0.00
23318;BME280;11831;55.918;37.746;2023-01-28T00:18:08;100009.28;;;0.80;0.00
23318;BME280;11831;55.918;37.746;2023-01-28T00:20:34;100011.84;;;0.72;0.00
23318;BME280;11831;55.918;37.746;2023-01-28T00:23:00;100003.41;;;0.86;0.00
23318;BME280;11831;55.918;37.746;2023-01-28T00:25:27;100005.16;;;0.96;0.00
23318;BME280;11831;55.918;37.746;2023-01-28T00:27:53;100016.69;;;1.46;0.00
23318;BME280;11831;55.918;37.746;2023-01-28T00:30:20;100019.28;;;0.95;0.00
23318;BME280;11831;55.918;37.746;2023-01-28T00:32:47;100017.22;;;1.24;0.00
23318;BME280;11831;55.918;37.746;2023-01-28T00:35:13;100016.50;;;0.43;0.00
23318;BME280;11831;55.918;37.746;2023-01-28T00:37:40;100020.41;;;0.74;0.00
23318;BME280;11831;55.918;37.746;2023-01-28T00:40:07;100017.53;;;0.85;0.00
23318;BME280;11831;55.918;37.746;2023-01-28T00:42:35;100022.81;;;0.85;0.00
23318;BME280;11831;55.918;37.746;2023-01-28T00:45:02;100013.47;;;0.91;0.00
23318;BME280;11831;55.918;37.746;2023-01-28T00:47:30;100019.00;;;0.62;0.00
23318;BME280;11831;55.918;37.746;2023-01-28T00:49:56;100013.56;;;0.81;0.00
23318;BME280;11831;55.918;37.746;2023-01-28T00:52:23;100022.06;;;0.75;0.00
23318;BME280;11831;55.918;37.746;2023-01-28T00:54:49;100016.66;;;0.95;0.00
23318;BME280;11831;55.918;37.746;2023-01-28T00:57:15;100014.63;;;0.71;0.00
23318;BME280;11831;55.918;37.746;2023-01-28T00:59:42;100016.50;;;0.78;0.00
23318;BME280;11831;55.918;37.746;2023-01-28T01:02:08;100026.38;;;1.20;0.00
23318;BME280;11831;55.918;37.746;2023-01-28T01:04:39;100025.22;;;0.79;0.00
23318;BME280;11831;55.918;37.746;2023-01-28T01:07:05;100027.25;;;1.03;0.00
23318;BME280;11831;55.918;37.746;2023-01-28T01:09:32;100025.81;;;0.90;0.00
23318;BME280;11831;55.918;37.746;2023-01-28T01:11:58;100023.63;;;1.04;0.00
23318;BME280;11831;55.918;37.746;2023-01-28T01:14:24;100029.91;;;0.67;0.00
23318;BME280;11831;55.918;37.746;2023-01-28T01:16:51;100028.75;;;1.05;0.00
23318;BME280;11831;55.918;37.746;2023-01-28T01:19:18;100028.00;;;0.95;0.00
23318;BME280;11831;55.918;37.746;2023-01-28T01:21:44;100027.78;;;1.06;0.00
23318;BME280;11831;55.918;37.746;2023-01-28T01:24:15;100029.38;;;0.81;0.00
23318;BME280;11831;55.918;37.746;2023-01-28T01:26:41;100034.75;;;1.15;0.00
23318;BME280;11831;55.918;37.746;2023-01-28T01:29:08;100033.03;;;0.88;0.00
23318;BME280;11831;55.918;37.746;2023-01-28T01:31:34;100023.56;;;0.96;0.00
23318;BME280;11831;55.918;37.746;2023-01-28T01:34:01;100024.94;;;1.00;0.00
23318;BME280;11831;55.918;37.746;2023-01-28T01:36:27;100026.50;;;0.92;0.00
23318;BME280;11831;55.918;37.746;2023-01-28T01:38:54;100024.47;;;1.04;0.00
23318;BME280;11831;55.918;37.746;2023-01-28T01:41:29;100021.03;;;1.30;0.00
23318;BME280;11831;55.918;37.746;2023-01-28T01:51:38;100034.25;;;0.13;0.00
23318;BME280;11831;55.918;37.746;2023-01-28T01:54:05;100026.28;;;0.86;0.00
23318;BME280;11831;55.918;37.746;2023-01-28T01:56:36;100023.13;;;0.82;0.00
23318;BME280;11831;55.918;37.746;2023-01-28T01:59:04;100020.56;;;1.34;0.00
23318;BME280;11831;55.918;37.746;2023-01-28T02:01:34;100028.66;;;1.15;0.00
23318;BME280;11831;55.918;37.746;2023-01-28T02:04:10;100029.53;;;0.62;0.00
23318;BME280;11831;55.918;37.746;2023-01-28T02:06:38;100024.31;;;0.88;0.00
23318;BME280;11831;55.918;37.746;2023-01-28T02:09:23;100024.09;;;0.99;0.00
23318;BME280;11831;55.918;37.746;2023-01-28T02:11:53;100027.72;;;0.62;0.00
23318;BME280;11831;55.918;37.746;2023-01-28T02:14:23;100033.84;;;0.53;0.00
23318;BME280;11831;55.918;37.746;2023-01-28T02:17:12;100032.38;;;0.69;0.00
23318;BME280;11831;55.918;37.746;2023-01-28T02:19:49;100035.12;;;0.49;0.00
23318;BME280;11831;55.918;37.746;2023-01-28T02:25:24;100040.91;;;0.35;0.00
23318;BME280;11831;55.918;37.746;2023-01-28T02:31:01;100040.56;;;0.48;0.00
23318;BME280;11831;55.918;37.746;2023-01-28T02:33:36;100047.63;;;0.20;0.00
23318;BME280;11831;55.918;37.746;2023-01-28T02:36:49;100044.84;;;0.49;0.00
23318;BME280;11831;55.918;37.746;2023-01-28T02:39:22;100043.25;;;0.11;0.00
23318;BME280;11831;55.918;37.746;2023-01-28T02:41:56;100047.19;;;-0.03;0.00
23318;BME280;11831;55.918;37.746;2023-01-28T02:44:23;100043.13;;;0.12;0.00
23318;BME280;11831;55.918;37.746;2023-01-28T02:46:52;100051.88;;;0.03;0.00
23318;BME280;11831;55.918;37.746;2023-01-28T02:49:45;100054.78;;;-0.27;0.00
23318;BME280;11831;55.918;37.746;2023-01-28T02:52:36;100058.13;;;0.02;0.00
23318;BME280;11831;55.918;37.746;2023-01-28T02:55:39;100054.97;;;-0.11;0.00
23318;BME280;11831;55.918;37.746;2023-01-28T03:04:10;100055.16;;;-0.32;0.00
23318;BME280;11831;55.918;37.746;2023-01-28T03:06:44;100069.31;;;0.04;0.00
23318;BME280;11831;55.918;37.746;2023-01-28T03:09:13;100069.34;;;0.22;0.00
23318;BME280;11831;55.918;37.746;2023-01-28T03:12:03;100063.44;;;-0.17;0.00
23318;BME280;11831;55.918;37.746;2023-01-28T03:14:53;100072.06;;;-0.25;0.00
23318;BME280;11831;55.918;37.746;2023-01-28T03:17:46;100072.53;;;-0.12;0.00
23318;BME280;11831;55.918;37.746;2023-01-28T03:20:38;100066.56;;;0.23;0.00
23318;BME280;11831;55.918;37.746;2023-01-28T03:23:37;100083.75;;;-0.10;0.00
23318;BME280;11831;55.918;37.746;2023-01-28T03:26:23;100075.19;;;-0.12;0.00
23318;BME280;11831;55.918;37.746;2023-01-28T03:29:13;100072.62;;;0.06;0.00
23318;BME280;11831;55.918;37.746;2023-01-28T03:31:59;100056.84;;;0.06;0.00
23318;BME280;11831;55.918;37.746;2023-01-28T03:34:45;100061.00;;;-0.01;0.00
23318;BME280;11831;55.918;37.746;2023-01-28T03:37:31;100064.84;;;0.14;0.00
23318;BME280;11831;55.918;37.746;2023-01-28T03:40:04;100066.56;;;-0.04;0.00
23318;BME280;11831;55.918;37.746;2023-01-28T03:42:32;100075.59;;;0.21;0.00
23318;BME280;11831;55.918;37.746;2023-01-28T03:44:59;100075.34;;;0.42;0.00
23318;BME280;11831;55.918;37.746;2023-01-28T03:47:28;100082.47;;;0.32;0.00
23318;BME280;11831;55.918;37.746;2023-01-28T03:49:57;100071.44;;;0.46;0.00
23318;BME280;11831;55.918;37.746;2023-01-28T03:52:27;100075.06;;;0.45;0.00
23318;BME280;11831;55.918;37.746;2023-01-28T03:54:55;100065.66;;;0.42;0.00
23318;BME280;11831;55.918;37.746;2023-01-28T03:57:23;100070.53;;;0.10;0.00
23318;BME280;11831;55.918;37.746;2023-01-28T03:59:50;100070.84;;;0.34;0.00
23318;BME280;11831;55.918;37.746;2023-01-28T04:02:19;100069.84;;;0.08;0.00
23318;BME280;11831;55.918;37.746;2023-01-28T04:04:46;100075.88;;;0.18;0.00
23318;BME280;11831;55.918;37.746;2023-01-28T04:07:13;100074.87;;;-0.55;0.00
23318;BME280;11831;55.918;37.746;2023-01-28T04:09:41;100075.13;;;-0.02;0.00
23318;BME280;11831;55.918;37.746;2023-01-28T04:12:10;100064.37;;;-0.09;0.00
23318;BME280;11831;55.918;37.746;2023-01-28T04:14:37;100071.50;;;0.09;0.00
23318;BME280;11831;55.918;37.746;2023-01-28T04:17:06;100068.28;;;0.42;0.00
23318;BME280;11831;55.918;37.746;2023-01-28T04:19:33;100072.00;;;0.67;0.00
23318;BME280;11831;55.918;37.746;2023-01-28T04:22:07;100072.88;;;0.58;0.00
23318;BME280;11831;55.918;37.746;2023-01-28T04:24:35;100066.28;;;0.26;0.00
23318;BME280;11831;55.918;37.746;2023-01-28T04:27:02;100069.22;;;0.23;0.00
23318;BME280;11831;55.918;37.746;2023-01-28T04:29:28;100081.69;;;-0.16;0.00
23318;BME280;11831;55.918;37.746;2023-01-28T04:31:54;100070.53;;;-0.27;0.00
23318;BME280;11831;55.918;37.746;2023-01-28T04:34:21;100070.81;;;-0.30;0.00
23318;BME280;11831;55.918;37.746;2023-01-28T04:36:48;100071.31;;;-0.17;0.00
23318;BME280;11831;55.918;37.746;2023-01-28T04:39:17;100071.41;;;0.01;0.00
23318;BME280;11831;55.918;37.746;2023-01-28T04:41:44;100072.00;;;-0.72;0.00
23318;BME280;11831;55.918;37.746;2023-01-28T04:44:12;100067.63;;;-0.34;0.00
23318;BME280;11831;55.918;37.746;2023-01-28T04:46:39;100058.63;;;-0.32;0.00
23318;BME280;11831;55.918;37.746;2023-01-28T04:49:06;100073.06;;;0.02;0.00
23318;BME280;11831;55.918;37.746;2023-01-28T04:51:33;100072.44;;;-0.20;0.00
23318;BME280;11831;55.918;37.746;2023-01-28T04:54:00;100072.97;;;-0.16;0.00
23318;BME280;11831;55.918;37.746;2023-01-28T04:56:26;100077.87;;;0.06;0.00
23318;BME280;11831;55.918;37.746;2023-01-28T04:58:53;100082.22;;;-0.59;0.00
23318;BME280;11831;55.918;37.746;2023-01-28T05:01:19;100090.78;;;-0.47;0.00
23318;BME280;11831;55.918;37.746;2023-01-28T05:03:46;100095.47;;;-0.04;0.00
23318;BME280;11831;55.918;37.746;2023-01-28T05:06:12;100104.16;;;-0.41;0.00
23318;BME280;11831;55.918;37.746;2023-01-28T05:08:39;100097.84;;;-0.11;0.00
23318;BME280;11831;55.918;37.746;2023-01-28T05:11:05;100097.78;;;-0.38;0.00
23318;BME280;11831;55.918;37.746;2023-01-28T05:13:32;100093.16;;;-0.07;0.00
23318;BME280;11831;55.918;37.746;2023-01-28T05:15:59;100100.00;;;-0.24;0.00
23318;BME280;11831;55.918;37.746;2023-01-28T05:18:25;100100.56;;;-0.40;0.00
23318;BME280;11831;55.918;37.746;2023-01-28T05:20:51;100097.81;;;-0.01;0.00
23318;BME280;11831;55.918;37.746;2023-01-28T05:23:18;100106.31;;;0.20;0.00
23318;BME280;11831;55.918;37.746;2023-01-28T05:25:45;100105.16;;;-0.71;0.00
23318;BME280;11831;55.918;37.746;2023-01-28T05:28:12;100099.44;;;-0.37;0.00
23318;BME280;11831;55.918;37.746;2023-01-28T05:30:38;100106.13;;;-0.52;0.00
23318;BME280;11831;55.918;37.746;2023-01-28T05:33:05;100102.38;;;-0.50;0.00
23318;BME280;11831;55.918;37.746;2023-01-28T05:35:31;100093.72;;;-0.13;0.00
23318;BME280;11831;55.918;37.746;2023-01-28T05:37:57;100097.75;;;0.18;0.00
23318;BME280;11831;55.918;37.746;2023-01-28T05:40:24;100102.69;;;-0.06;0.00
23318;BME280;11831;55.918;37.746;2023-01-28T05:42:50;100103.44;;;0.14;0.00
23318;BME280;11831;55.918;37.746;2023-01-28T05:45:18;100104.25;;;-0.13;0.00
23318;BME280;11831;55.918;37.746;2023-01-28T05:47:48;100102.41;;;-0.03;0.00
23318;BME280;11831;55.918;37.746;2023-01-28T05:50:15;100113.72;;;-0.49;0.00
23318;BME280;11831;55.918;37.746;2023-01-28T05:52:42;100113.47;;;-0.75;0.00
23318;BME280;11831;55.918;37.746;2023-01-28T05:55:09;100115.91;;;-0.35;0.00
23318;BME280;11831;55.918;37.746;2023-01-28T05:57:36;100120.03;;;-0.23;0.00
23318;BME280;11831;55.918;37.746;2023-01-28T06:00:03;100114.56;;;-0.68;0.00
23318;BME280;11831;55.918;37.746;2023-01-28T06:02:41;100117.06;;;-0.57;0.00
23318;BME280;11831;55.918;37.746;2023-01-28T06:05:08;100115.13;;;-0.74;0.00
23318;BME280;11831;55.918;37.746;2023-01-28T06:07:35;100125.50;;;-0.53;0.00
23318;BME280;11831;55.918;37.746;2023-01-28T06:10:02;100124.94;;;-0.57;0.00
23318;BME280;11831;55.918;37.746;2023-01-28T06:12:29;100121.81;;;-0.14;0.00
23318;BME280;11831;55.918;37.746;2023-01-28T06:14:58;100122.31;;;-0.76;0.00
23318;BME280;11831;55.918;37.746;2023-01-28T06:17:25;100117.25;;;-0.12;0.00
23318;BME280;11831;55.918;37.746;2023-01-28T06:19:52;100126.94;;;0.25;0.00
23318;BME280;11831;55.918;37.746;2023-01-28T06:22:18;100119.16;;;-0.04;0.00
23318;BME280;11831;55.918;37.746;2023-01-28T06:24:44;100131.38;;;-0.22;0.00
23318;BME280;11831;55.918;37.746;2023-01-28T06:27:11;100131.38;;;-0.22;0.00
23318;BME280;11831;55.918;37.746;2023-01-28T06:29:37;100129.34;;;-0.67;0.00
23318;BME280;11831;55.918;37.746;2023-01-28T06:32:04;100124.81;;;-0.75;0.00
23318;BME280;11831;55.918;37.746;2023-01-28T06:34:30;100126.72;;;-0.48;0.00
23318;BME280;11831;55.918;37.746;2023-01-28T06:36:57;100130.12;;;-0.18;0.00
23318;BME280;11831;55.918;37.746;2023-01-28T06:39:23;100141.59;;;-0.10;0.00
23318;BME280;11831;55.918;37.746;2023-01-28T06:41:51;100140.81;;;0.17;0.00
23318;BME280;11831;55.918;37.746;2023-01-28T06:44:18;100143.38;;;0.37;0.00
23318;BME280;11831;55.918;37.746;2023-01-28T06:46:45;100133.78;;;0.08;0.00
23318;BME280;11831;55.918;37.746;2023-01-28T06:49:11;100147.53;;;0.29;0.00
23318;BME280;11831;55.918;37.746;2023-01-28T06:51:37;100149.19;;;0.03;0.00
23318;BME280;11831;55.918;37.746;2023-01-28T06:54:04;100142.94;;;-0.06;0.00
23318;BME280;11831;55.918;37.746;2023-01-28T06:56:30;100141.78;;;-0.30;0.00
23318;BME280;11831;55.918;37.746;2023-01-28T06:58:57;100138.59;;;-0.44;0.00
23318;BME280;11831;55.918;37.746;2023-01-28T07:01:23;100144.16;;;-0.47;0.00
23318;BME280;11831;55.918;37.746;2023-01-28T07:03:50;100147.75;;;-0.48;0.00
23318;BME280;11831;55.918;37.746;2023-01-28T07:06:16;100143.97;;;-0.36;0.00
23318;BME280;11831;55.918;37.746;2023-01-28T07:08:42;100143.88;;;-0.53;0.00
23318;BME280;11831;55.918;37.746;2023-01-28T07:11:09;100137.06;;;-0.37;0.00
23318;BME280;11831;55.918;37.746;2023-01-28T07:13:35;100135.44;;;-0.47;0.00
23318;BME280;11831;55.918;37.746;2023-01-28T07:16:02;100137.22;;;-0.67;0.00
23318;BME280;11831;55.918;37.746;2023-01-28T07:18:29;100138.50;;;-0.81;0.00
23318;BME280;11831;55.918;37.746;2023-01-28T07:20:56;100141.22;;;-0.34;0.00
23318;BME280;11831;55.918;37.746;2023-01-28T07:23:22;100142.06;;;-0.43;0.00
23318;BME280;11831;55.918;37.746;2023-01-28T07:25:49;100135.53;;;-0.20;0.00
23318;BME280;11831;55.918;37.746;2023-01-28T07:28:15;100138.72;;;-0.26;0.00
23318;BME280;11831;55.918;37.746;2023-01-28T07:30:48;100142.22;;;-0.54;0.00
23318;BME280;11831;55.918;37.746;2023-01-28T07:33:14;100145.41;;;-0.60;0.00
23318;BME280;11831;55.918;37.746;2023-01-28T07:35:41;100144.44;;;-0.69;0.00
23318;BME280;11831;55.918;37.746;2023-01-28T07:38:08;100148.03;;;-0.70;0.00
23318;BME280;11831;55.918;37.746;2023-01-28T07:40:34;100143.47;;;-0.87;0.00
23318;BME280;11831;55.918;37.746;2023-01-28T07:43:01;100138.22;;;-0.78;0.00
23318;BME280;11831;55.918;37.746;2023-01-28T07:45:34;100146.38;;;-0.81;0.00
23318;BME280;11831;55.918;37.746;2023-01-28T07:48:06;100140.97;;;-0.79;0.00
23318;BME280;11831;55.918;37.746;2023-01-28T07:50:35;100153.56;;;-0.73;0.00
23318;BME280;11831;55.918;37.746;2023-01-28T07:53:03;100150.94;;;-0.54;0.00
23318;BME280;11831;55.918;37.746;2023-01-28T07:55:30;100147.47;;;-0.74;0.00
23318;BME280;11831;55.918;37.746;2023-01-28T07:57:58;100151.06;;;-0.65;0.00
23318;BME280;11831;55.918;37.746;2023-01-28T08:00:27;100149.13;;;-0.82;0.00
23318;BME280;11831;55.918;37.746;2023-01-28T08:02:56;100149.97;;;-0.91;0.00
23318;BME280;11831;55.918;37.746;2023-01-28T08:05:23;100143.88;;;-0.53;0.00
23318;BME280;11831;55.918;37.746;2023-01-28T08:07:52;100142.37;;;-0.56;0.00
23318;BME280;11831;55.918;37.746;2023-01-28T08:10:19;100130.59;;;-0.42;0.00
23318;BME280;11831;55.918;37.746;2023-01-28T08:12:52;100140.94;;;-0.41;0.00
23318;BME280;11831;55.918;37.746;2023-01-28T08:15:20;100136.25;;;-0.27;0.00
23318;BME280;11831;55.918;37.746;2023-01-28T08:17:46;100138.34;;;-0.60;0.00
23318;BME280;11831;55.918;37.746;2023-01-28T08:20:13;100145.50;;;-0.33;0.00
23318;BME280;11831;55.918;37.746;2023-01-28T08:22:40;100145.63;;;-0.15;0.00
23318;BME280;11831;55.918;37.746;2023-01-28T08:25:07;100135.84;;;-0.62;0.00
23318;BME280;11831;55.918;37.746;2023-01-28T08:27:33;100135.72;;;-0.50;0.00
23318;BME280;11831;55.918;37.746;2023-01-28T08:30:00;100138.63;;;-0.73;0.00
23318;BME280;11831;55.918;37.746;2023-01-28T08:32:28;100141.97;;;-0.61;0.00
23318;BME280;11831;55.918;37.746;2023-01-28T08:34:56;100132.50;;;-0.35;0.00
23318;BME280;11831;55.918;37.746;2023-01-28T08:37:22;100132.22;;;-0.32;0.00
23318;BME280;11831;55.918;37.746;2023-01-28T08:39:49;100132.28;;;-0.60;0.00
23318;BME280;11831;55.918;37.746;2023-01-28T08:42:16;100127.28;;;-0.64;0.00
23318;BME280;11831;55.918;37.746;2023-01-28T08:44:42;100118.41;;;-0.43;0.00
23318;BME280;11831;55.918;37.746;2023-01-28T08:47:09;100120.38;;;-1.03;0.00
23318;BME280;11831;55.918;37.746;2023-01-28T08:49:35;100111.37;;;-0.72;0.00
23318;BME280;11831;55.918;37.746;2023-01-28T08:52:01;100125.47;;;-0.63;0.00
23318;BME280;11831;55.918;37.746;2023-01-28T08:54:28;100119.84;;;-0.58;0.00
23318;BME280;11831;55.918;37.746;2023-01-28T08:56:54;100120.22;;;-0.92;0.00
23318;BME280;11831;55.918;37.746;2023-01-28T08:59:21;100129.19;;;-0.37;0.00
23318;BME280;11831;55.918;37.746;2023-01-28T09:01:47;100122.72;;;-0.52;0.00
23318;BME280;11831;55.918;37.746;2023-01-28T09:04:13;100124.22;;;-0.40;0.00
23318;BME280;11831;55.918;37.746;2023-01-28T09:06:40;100117.19;;;-0.49;0.00
23318;BME280;11831;55.918;37.746;2023-01-28T09:09:06;100114.00;;;-0.52;0.00
23318;BME280;11831;55.918;37.746;2023-01-28T09:11:32;100115.50;;;-0.30;0.00
23318;BME280;11831;55.918;37.746;2023-01-28T09:13:59;100116.72;;;-0.35;0.00
23318;BME280;11831;55.918;37.746;2023-01-28T09:16:25;100109.28;;;-0.29;0.00
23318;BME280;11831;55.918;37.746;2023-01-28T09:18:52;100116.00;;;-0.17;0.00
23318;BME280;11831;55.918;37.746;2023-01-28T09:21:19;100109.06;;;0.01;0.00
23318;BME280;11831;55.918;37.746;2023-01-28T09:23:46;100118.37;;;-0.24;0.00
23318;BME280;11831;55.918;37.746;2023-01-28T09:26:12;100108.91;;;-0.07;0.00
23318;BME280;11831;55.918;37.746;2023-01-28T09:28:39;100109.47;;;0.34;0.00
23318;BME280;11831;55.918;37.746;2023-01-28T09:31:08;100114.84;;;0.59;0.00
23318;BME280;11831;55.918;37.746;2023-01-28T09:33:36;100111.53;;;0.30;0.00
23318;BME280;11831;55.918;37.746;2023-01-28T09:36:05;100104.97;;;0.71;0.00
23318;BME280;11831;55.918;37.746;2023-01-28T09:38:32;100103.75;;;0.66;0.00
23318;BME280;11831;55.918;37.746;2023-01-28T09:41:01;100103.59;;;0.85;0.00
23318;BME280;11831;55.918;37.746;2023-01-28T09:46:02;100102.28;;;0.99;0.00
23318;BME280;11831;55.918;37.746;2023-01-28T09:48:36;100100.59;;;1.33;0.00
23318;BME280;11831;55.918;37.746;2023-01-28T09:51:08;100100.53;;;1.07;0.00
23318;BME280;11831;55.918;37.746;2023-01-28T09:53:42;100095.06;;;1.01;0.00
23318;BME280;11831;55.918;37.746;2023-01-28T09:56:21;100092.34;;;0.92;0.00
23318;BME280;11831;55.918;37.746;2023-01-28T09:58:51;100087.53;;;1.23;0.00
23318;BME280;11831;55.918;37.746;2023-01-28T10:09:06;100099.50;;;1.00;0.00
23318;BME280;11831;55.918;37.746;2023-01-28T10:17:19;100096.56;;;1.47;0.00
23318;BME280;11831;55.918;37.746;2023-01-28T10:20:02;100090.12;;;1.41;0.00
23318;BME280;11831;55.918;37.746;2023-01-28T10:22:36;100088.47;;;1.40;0.00
23318;BME280;11831;55.918;37.746;2023-01-28T10:25:07;100082.88;;;1.43;0.00
23318;BME280;11831;55.918;37.746;2023-01-28T10:27:41;100080.59;;;2.00;0.00
23318;BME280;11831;55.918;37.746;2023-01-28T10:33:02;100072.31;;;1.61;0.00
23318;BME280;11831;55.918;37.746;2023-01-28T10:35:37;100071.13;;;1.55;0.00
23318;BME280;11831;55.918;37.746;2023-01-28T10:38:06;100069.59;;;1.27;0.00
23318;BME280;11831;55.918;37.746;2023-01-28T10:40:34;100067.66;;;0.93;0.00
23318;BME280;11831;55.918;37.746;2023-01-28T10:43:01;100061.09;;;1.15;0.00
23318;BME280;11831;55.918;37.746;2023-01-28T10:45:33;100059.75;;;0.76;0.00
23318;BME280;11831;55.918;37.746;2023-01-28T10:48:07;100057.63;;;1.15;0.00
23318;BME280;11831;55.918;37.746;2023-01-28T10:50:34;100059.22;;;1.26;0.00
23318;BME280;11831;55.918;37.746;2023-01-28T10:53:04;100052.81;;;1.10;0.00
23318;BME280;11831;55.918;37.746;2023-01-28T10:55:35;100049.28;;;1.02;0.00
23318;BME280;11831;55.918;37.746;2023-01-28T10:58:20;100043.56;;;0.88;0.00
23318;BME280;11831;55.918;37.746;2023-01-28T11:00:52;100040.56;;;0.83;0.00
23318;BME280;11831;55.918;37.746;2023-01-28T11:03:20;100045.69;;;0.67;0.00
23318;BME280;11831;55.918;37.746;2023-01-28T11:05:52;100040.41;;;0.22;0.00
23318;BME280;11831;55.918;37.746;2023-01-28T11:08:19;100047.56;;;0.75;0.00
23318;BME280;11831;55.918;37.746;2023-01-28T11:10:47;100041.50;;;0.92;0.00
23318;BME280;11831;55.918;37.746;2023-01-28T11:13:18;100037.47;;;1.49;0.00
23318;BME280;11831;55.918;37.746;2023-01-28T11:16:04;100038.97;;;0.90;0.00
23318;BME280;11831;55.918;37.746;2023-01-28T11:18:40;100032.56;;;1.11;0.00
23318;BME280;11831;55.918;37.746;2023-01-28T11:21:18;100033.56;;;1.53;0.00
23318;BME280;11831;55.918;37.746;2023-01-28T11:24:03;100034.91;;;1.14;0.00
23318;BME280;11831;55.918;37.746;2023-01-28T11:28:58;100025.75;;;1.78;0.00
23318;BME280;11831;55.918;37.746;2023-01-28T11:31:25;100032.53;;;1.80;0.00
23318;BME280;11831;55.918;37.746;2023-01-28T11:33:59;100022.06;;;1.63;0.00
23318;BME280;11831;55.918;37.746;2023-01-28T11:36:30;100030.53;;;1.48;0.00
23318;BME280;11831;55.918;37.746;2023-01-28T11:39:02;100019.63;;;1.43;0.00
23318;BME280;11831;55.918;37.746;2023-01-28T11:41:35;100017.91;;;1.08;0.00
23318;BME280;11831;55.918;37.746;2023-01-28T11:44:26;100015.06;;;1.02;0.00
23318;BME280;11831;55.918;37.746;2023-01-28T11:47:12;100011.81;;;0.90;0.00
23318;BME280;11831;55.918;37.746;2023-01-28T11:58:09;100005.00;;;1.83;0.00
23318;BME280;11831;55.918;37.746;2023-01-28T12:00:37;100003.00;;;1.43;0.00
23318;BME280;11831;55.918;37.746;2023-01-28T12:05:48;100006.31;;;1.45;0.00
23318;BME280;11831;55.918;37.746;2023-01-28T12:08:23;99991.94;;;1.65;0.00
23318;BME280;11831;55.918;37.746;2023-01-28T12:11:32;99992.81;;;1.48;0.00
23318;BME280;11831;55.918;37.746;2023-01-28T12:14:25;99998.25;;;1.80;0.00
23318;BME280;11831;55.918;37.746;2023-01-28T12:17:28;99993.81;;;1.81;0.00
23318;BME280;11831;55.918;37.746;2023-01-28T12:31:30;99978.22;;;1.28;0.00
23318;BME280;11831;55.918;37.746;2023-01-28T12:37:02;99970.59;;;1.50;0.00
23318;BME280;11831;55.918;37.746;2023-01-28T12:39:50;99969.97;;;1.57;0.00
23318;BME280;11831;55.918;37.746;2023-01-28T12:42:31;99961.84;;;1.50;0.00
23318;BME280;11831;55.918;37.746;2023-01-28T12:47:53;99967.12;;;1.84;0.00
23318;BME280;11831;55.918;37.746;2023-01-28T12:50:32;99964.25;;;1.69;0.00
23318;BME280;11831;55.918;37.746;2023-01-28T12:53:42;99956.03;;;1.72;0.00
23318;BME280;11831;55.918;37.746;2023-01-28T12:59:05;99951.00;;;1.87;0.00
23318;BME280;11831;55.918;37.746;2023-01-28T13:07:08;99952.53;;;1.30;0.00
23318;BME280;11831;55.918;37.746;2023-01-28T13:09:41;99955.69;;;0.89;0.00
23318;BME280;11831;55.918;37.746;2023-01-28T13:12:10;99957.66;;;0.87;0.00
23318;BME280;11831;55.918;37.746;2023-01-28T13:14:39;99956.56;;;0.72;0.00
23318;BME280;11831;55.918;37.746;2023-01-28T13:17:24;99959.09;;;1.00;0.00
23318;BME280;11831;55.918;37.746;2023-01-28T13:19:51;99964.25;;;1.35;0.00
23318;BME280;11831;55.918;37.746;2023-01-28T13:22:28;99951.75;;;1.11;0.00
23318;BME280;11831;55.918;37.746;2023-01-28T13:24:55;99949.69;;;1.23;0.00
23318;BME280;11831;55.918;37.746;2023-01-28T13:27:26;99954.50;;;1.28;0.00
23318;BME280;11831;55.918;37.746;2023-01-28T13:32:56;99951.31;;;1.50;0.00
23318;BME280;11831;55.918;37.746;2023-01-28T13:35:36;99957.84;;;1.72;0.00
23318;BME280;11831;55.918;37.746;2023-01-28T13:38:21;99944.50;;;1.39;0.00
23318;BME280;11831;55.918;37.746;2023-01-28T13:40:59;99953.44;;;1.20;0.00
23318;BME280;11831;55.918;37.746;2023-01-28T13:46:08;99946.72;;;1.86;0.00
23318;BME280;11831;55.918;37.746;2023-01-28T13:48:48;99943.22;;;1.43;0.00
23318;BME280;11831;55.918;37.746;2023-01-28T13:51:19;99940.53;;;1.35;0.00
23318;BME280;11831;55.918;37.746;2023-01-28T13:54:06;99936.34;;;2.01;0.00
23318;BME280;11831;55.918;37.746;2023-01-28T14:05:02;99925.75;;;1.42;0.00
23318;BME280;11831;55.918;37.746;2023-01-28T14:07:44;99919.16;;;1.38;0.00
23318;BME280;11831;55.918;37.746;2023-01-28T14:10:27;99913.38;;;1.09;0.00
23318;BME280;11831;55.918;37.746;2023-01-28T14:16:21;99911.84;;;1.24;0.00
23318;BME280;11831;55.918;37.746;2023-01-28T14:18:52;99911.06;;;1.74;0.00
23318;BME280;11831;55.918;37.746;2023-01-28T14:21:20;99916.87;;;1.85;0.00
23318;BME280;11831;55.918;37.746;2023-01-28T14:23:52;99923.72;;;1.70;0.00
23318;BME280;11831;55.918;37.746;2023-01-28T14:26:44;99914.50;;;1.66;0.00
23318;BME280;11831;55.918;37.746;2023-01-28T14:31:47;99910.78;;;1.17;0.00
23318;BME280;11831;55.918;37.746;2023-01-28T14:36:53;99912.66;;;1.24;0.00
23318;BME280;11831;55.918;37.746;2023-01-28T14:39:29;99912.75;;;0.89;0.00
23318;BME280;11831;55.918;37.746;2023-01-28T14:41:58;99905.31;;;1.10;0.00
23318;BME280;11831;55.918;37.746;2023-01-28T14:47:21;99909.63;;;1.45;0.00
23318;BME280;11831;55.918;37.746;2023-01-28T14:50:09;99897.78;;;1.49;0.00
23318;BME280;11831;55.918;37.746;2023-01-28T14:55:37;99901.66;;;1.71;0.00
23318;BME280;11831;55.918;37.746;2023-01-28T14:58:13;99909.97;;;1.93;0.00
23318;BME280;11831;55.918;37.746;2023-01-28T15:00:52;99913.94;;;1.97;0.00
23318;BME280;11831;55.918;37.746;2023-01-28T15:03:19;99916.87;;;1.85;0.00